sensor_id;sensor_type;location;lat;lon;timestamp;P1;durP1;ratioP1;P2;durP2;ratioP2
17763;SDS011;22245;52.832;13.816;2023-09-19T00:03:19;3.33;;;1.80;;
17763;SDS011;22245;52.832;13.816;2023-09-19T00:06:43;5.72;;;2.53;;
17763;SDS011;22245;52.832;13.816;2023-09-19T00:10:05;4.75;;;2.08;;
17763;SDS011;22245;52.832;13.816;2023-09-19T00:13:29;5.20;;;2.30;;
17763;SDS011;22245;52.832;13.816;2023-09-19T00:16:51;4.00;;;1.98;;
17763;SDS011;22245;52.832;13.816;2023-09-19T00:20:16;4.22;;;2.17;;
17763;SDS011;22245;52.832;13.816;2023-09-19T00:23:38;3.65;;;2.03;;
17763;SDS011;22245;52.832;13.816;2023-09-19T00:27:00;6.10;;;2.33;;
17763;SDS011;22245;52.832;13.816;2023-09-19T00:30:22;3.75;;;2.10;;
17763;SDS011;22245;52.832;13.816;2023-09-19T00:33:44;3.72;;;2.00;;
17763;SDS011;22245;52.832;13.816;2023-09-19T00:37:07;3.92;;;2.20;;
17763;SDS011;22245;52.832;13.816;2023-09-19T00:40:31;6.88;;;2.40;;
17763;SDS011;22245;52.832;13.816;2023-09-19T00:43:53;3.63;;;2.20;;
17763;SDS011;22245;52.832;13.816;2023-09-19T00:47:15;3.42;;;1.95;;
17763;SDS011;22245;52.832;13.816;2023-09-19T00:50:37;4.65;;;2.63;;
17763;SDS011;22245;52.832;13.816;2023-09-19T00:54:04;4.40;;;2.60;;
17763;SDS011;22245;52.832;13.816;2023-09-19T00:57:27;8.23;;;2.28;;
17763;SDS011;22245;52.832;13.816;2023-09-19T01:00:53;3.92;;;2.53;;
17763;SDS011;22245;52.832;13.816;2023-09-19T01:04:16;5.20;;;2.38;;
17763;SDS011;22245;52.832;13.816;2023-09-19T01:07:38;8.68;;;2.25;;
17763;SDS011;22245;52.832;13.816;2023-09-19T01:11:03;4.18;;;2.00;;
17763;SDS011;22245;52.832;13.816;2023-09-19T01:14:34;4.47;;;2.10;;
17763;SDS011;22245;52.832;13.816;2023-09-19T01:18:03;4.32;;;2.25;;
17763;SDS011;22245;52.832;13.816;2023-09-19T01:21:36;2.97;;;2.25;;
17763;SDS011;22245;52.832;13.816;2023-09-19T01:25:18;4.60;;;2.35;;
17763;SDS011;22245;52.832;13.816;2023-09-19T01:29:00;4.32;;;2.20;;
17763;SDS011;22245;52.832;13.816;2023-09-19T01:32:35;3.67;;;2.00;;
17763;SDS011;22245;52.832;13.816;2023-09-19T01:35:58;5.57;;;2.17;;
17763;SDS011;22245;52.832;13.816;2023-09-19T01:39:19;4.75;;;2.13;;
17763;SDS011;22245;52.832;13.816;2023-09-19T01:42:43;5.47;;;2.38;;
17763;SDS011;22245;52.832;13.816;2023-09-19T01:46:08;4.18;;;1.90;;
17763;SDS011;22245;52.832;13.816;2023-09-19T01:49:37;7.45;;;2.10;;
17763;SDS011;22245;52.832;13.816;2023-09-19T01:53:06;3.33;;;2.05;;
17763;SDS011;22245;52.832;13.816;2023-09-19T01:56:45;4.63;;;1.90;;
17763;SDS011;22245;52.832;13.816;2023-09-19T02:00:11;6.10;;;2.05;;
17763;SDS011;22245;52.832;13.816;2023-09-19T02:03:36;5.32;;;2.33;;
17763;SDS011;22245;52.832;13.816;2023-09-19T02:07:02;3.22;;;1.90;;
17763;SDS011;22245;52.832;13.816;2023-09-19T02:10:26;4.40;;;1.80;;
17763;SDS011;22245;52.832;13.816;2023-09-19T02:13:47;2.70;;;1.90;;
17763;SDS011;22245;52.832;13.816;2023-09-19T02:17:15;3.88;;;2.08;;
17763;SDS011;22245;52.832;13.816;2023-09-19T02:20:37;3.97;;;2.03;;
17763;SDS011;22245;52.832;13.816;2023-09-19T02:24:00;4.65;;;1.92;;
17763;SDS011;22245;52.832;13.816;2023-09-19T02:27:23;5.85;;;2.15;;
17763;SDS011;22245;52.832;13.816;2023-09-19T02:30:47;3.67;;;2.00;;
17763;SDS011;22245;52.832;13.816;2023-09-19T02:34:09;4.97;;;2.33;;
17763;SDS011;22245;52.832;13.816;2023-09-19T02:37:31;6.10;;;2.08;;
17763;SDS011;22245;52.832;13.816;2023-09-19T02:40:54;6.43;;;2.22;;
17763;SDS011;22245;52.832;13.816;2023-09-19T02:44:16;7.70;;;2.38;;
17763;SDS011;22245;52.832;13.816;2023-09-19T02:47:39;2.63;;;2.10;;
17763;SDS011;22245;52.832;13.816;2023-09-19T02:51:02;7.30;;;2.40;;
17763;SDS011;22245;52.832;13.816;2023-09-19T02:54:25;3.80;;;2.17;;
17763;SDS011;22245;52.832;13.816;2023-09-19T02:57:48;4.22;;;2.42;;
17763;SDS011;22245;52.832;13.816;2023-09-19T03:01:12;4.43;;;2.20;;
17763;SDS011;22245;52.832;13.816;2023-09-19T03:04:34;2.95;;;2.17;;
17763;SDS011;22245;52.832;13.816;2023-09-19T03:07:56;4.68;;;2.03;;
17763;SDS011;22245;52.832;13.816;2023-09-19T03:11:21;3.60;;;2.13;;
17763;SDS011;22245;52.832;13.816;2023-09-19T03:14:47;5.43;;;2.65;;
17763;SDS011;22245;52.832;13.816;2023-09-19T03:18:11;3.28;;;2.00;;
17763;SDS011;22245;52.832;13.816;2023-09-19T03:21:33;5.95;;;2.42;;
17763;SDS011;22245;52.832;13.816;2023-09-19T03:24:55;5.22;;;2.42;;
17763;SDS011;22245;52.832;13.816;2023-09-19T03:28:17;4.00;;;2.08;;
17763;SDS011;22245;52.832;13.816;2023-09-19T03:31:42;3.92;;;2.30;;
17763;SDS011;22245;52.832;13.816;2023-09-19T03:35:04;5.20;;;2.38;;
17763;SDS011;22245;52.832;13.816;2023-09-19T03:38:28;3.90;;;2.08;;
17763;SDS011;22245;52.832;13.816;2023-09-19T03:41:50;4.68;;;1.80;;
17763;SDS011;22245;52.832;13.816;2023-09-19T03:45:11;4.18;;;2.28;;
17763;SDS011;22245;52.832;13.816;2023-09-19T03:48:40;4.80;;;2.33;;
17763;SDS011;22245;52.832;13.816;2023-09-19T03:52:03;4.93;;;2.05;;
17763;SDS011;22245;52.832;13.816;2023-09-19T03:55:24;3.90;;;2.03;;
17763;SDS011;22245;52.832;13.816;2023-09-19T03:58:47;3.40;;;2.05;;
17763;SDS011;22245;52.832;13.816;2023-09-19T04:02:10;3.80;;;1.77;;
17763;SDS011;22245;52.832;13.816;2023-09-19T04:05:44;5.80;;;2.03;;
17763;SDS011;22245;52.832;13.816;2023-09-19T04:09:06;2.67;;;1.70;;
17763;SDS011;22245;52.832;13.816;2023-09-19T04:12:31;4.97;;;2.30;;
17763;SDS011;22245;52.832;13.816;2023-09-19T04:15:53;3.53;;;1.95;;
17763;SDS011;22245;52.832;13.816;2023-09-19T04:19:15;3.45;;;1.80;;
17763;SDS011;22245;52.832;13.816;2023-09-19T04:22:39;4.47;;;2.20;;
17763;SDS011;22245;52.832;13.816;2023-09-19T04:26:00;6.55;;;2.10;;
17763;SDS011;22245;52.832;13.816;2023-09-19T04:29:24;6.15;;;1.80;;
17763;SDS011;22245;52.832;13.816;2023-09-19T04:32:46;3.05;;;2.05;;
17763;SDS011;22245;52.832;13.816;2023-09-19T04:36:11;4.13;;;2.00;;
17763;SDS011;22245;52.832;13.816;2023-09-19T04:39:54;3.65;;;1.90;;
17763;SDS011;22245;52.832;13.816;2023-09-19T04:43:15;4.03;;;2.03;;
17763;SDS011;22245;52.832;13.816;2023-09-19T04:46:37;3.72;;;1.80;;
17763;SDS011;22245;52.832;13.816;2023-09-19T04:49:59;4.25;;;1.80;;
17763;SDS011;22245;52.832;13.816;2023-09-19T04:53:21;5.97;;;2.05;;
17763;SDS011;22245;52.832;13.816;2023-09-19T04:56:43;3.28;;;1.98;;
17763;SDS011;22245;52.832;13.816;2023-09-19T05:00:05;4.22;;;2.10;;
17763;SDS011;22245;52.832;13.816;2023-09-19T05:03:32;3.20;;;2.10;;
17763;SDS011;22245;52.832;13.816;2023-09-19T05:06:53;2.38;;;1.80;;
17763;SDS011;22245;52.832;13.816;2023-09-19T05:10:15;5.60;;;2.63;;
17763;SDS011;22245;52.832;13.816;2023-09-19T05:13:40;3.15;;;2.10;;
17763;SDS011;22245;52.832;13.816;2023-09-19T05:17:03;2.35;;;1.95;;
17763;SDS011;22245;52.832;13.816;2023-09-19T05:20:25;3.65;;;1.90;;
17763;SDS011;22245;52.832;13.816;2023-09-19T05:23:52;3.08;;;1.98;;
17763;SDS011;22245;52.832;13.816;2023-09-19T05:27:13;5.95;;;2.10;;
17763;SDS011;22245;52.832;13.816;2023-09-19T05:30:38;2.40;;;1.80;;
17763;SDS011;22245;52.832;13.816;2023-09-19T05:34:00;5.28;;;2.30;;
17763;SDS011;22245;52.832;13.816;2023-09-19T05:37:21;6.38;;;2.38;;
17763;SDS011;22245;52.832;13.816;2023-09-19T05:40:43;5.68;;;2.33;;
17763;SDS011;22245;52.832;13.816;2023-09-19T05:44:06;5.40;;;2.35;;
17763;SDS011;22245;52.832;13.816;2023-09-19T05:47:29;4.25;;;2.17;;
17763;SDS011;22245;52.832;13.816;2023-09-19T05:50:51;3.67;;;2.20;;
17763;SDS011;22245;52.832;13.816;2023-09-19T05:54:13;4.30;;;2.60;;
17763;SDS011;22245;52.832;13.816;2023-09-19T05:57:35;4.45;;;2.40;;
17763;SDS011;22245;52.832;13.816;2023-09-19T06:00:59;4.75;;;2.65;;
17763;SDS011;22245;52.832;13.816;2023-09-19T06:04:21;4.55;;;2.63;;
17763;SDS011;22245;52.832;13.816;2023-09-19T06:07:43;4.88;;;2.38;;
17763;SDS011;22245;52.832;13.816;2023-09-19T06:11:04;5.00;;;2.65;;
17763;SDS011;22245;52.832;13.816;2023-09-19T06:14:29;7.03;;;2.75;;
17763;SDS011;22245;52.832;13.816;2023-09-19T06:17:52;5.80;;;2.50;;
17763;SDS011;22245;52.832;13.816;2023-09-19T06:21:16;5.47;;;2.90;;
17763;SDS011;22245;52.832;13.816;2023-09-19T06:24:38;7.03;;;3.25;;
17763;SDS011;22245;52.832;13.816;2023-09-19T06:28:00;5.68;;;2.55;;
17763;SDS011;22245;52.832;13.816;2023-09-19T06:31:25;5.07;;;2.63;;
17763;SDS011;22245;52.832;13.816;2023-09-19T06:34:51;4.75;;;2.72;;
17763;SDS011;22245;52.832;13.816;2023-09-19T06:38:15;3.22;;;2.65;;
17763;SDS011;22245;52.832;13.816;2023-09-19T06:41:39;14.23;;;3.25;;
17763;SDS011;22245;52.832;13.816;2023-09-19T06:45:03;3.22;;;2.30;;
17763;SDS011;22245;52.832;13.816;2023-09-19T06:48:26;4.57;;;2.67;;
17763;SDS011;22245;52.832;13.816;2023-09-19T06:51:49;5.93;;;2.70;;
17763;SDS011;22245;52.832;13.816;2023-09-19T06:55:12;5.40;;;2.75;;
17763;SDS011;22245;52.832;13.816;2023-09-19T06:58:36;6.35;;;2.63;;
17763;SDS011;22245;52.832;13.816;2023-09-19T07:01:57;4.28;;;2.80;;
17763;SDS011;22245;52.832;13.816;2023-09-19T07:05:19;3.08;;;2.50;;
17763;SDS011;22245;52.832;13.816;2023-09-19T07:08:41;5.05;;;2.78;;
17763;SDS011;22245;52.832;13.816;2023-09-19T07:12:07;4.40;;;2.63;;
17763;SDS011;22245;52.832;13.816;2023-09-19T07:15:29;5.78;;;2.90;;
17763;SDS011;22245;52.832;13.816;2023-09-19T07:18:55;7.97;;;3.47;;
17763;SDS011;22245;52.832;13.816;2023-09-19T07:22:17;4.90;;;2.55;;
17763;SDS011;22245;52.832;13.816;2023-09-19T07:25:39;5.57;;;2.67;;
17763;SDS011;22245;52.832;13.816;2023-09-19T07:29:02;5.45;;;3.08;;
17763;SDS011;22245;52.832;13.816;2023-09-19T07:32:24;5.75;;;2.50;;
17763;SDS011;22245;52.832;13.816;2023-09-19T07:35:46;5.70;;;2.20;;
17763;SDS011;22245;52.832;13.816;2023-09-19T07:39:09;6.93;;;2.70;;
17763;SDS011;22245;52.832;13.816;2023-09-19T07:42:42;5.75;;;2.38;;
17763;SDS011;22245;52.832;13.816;2023-09-19T07:46:06;5.10;;;2.50;;
17763;SDS011;22245;52.832;13.816;2023-09-19T07:49:29;6.40;;;2.50;;
17763;SDS011;22245;52.832;13.816;2023-09-19T07:52:50;12.68;;;2.92;;
17763;SDS011;22245;52.832;13.816;2023-09-19T07:56:12;6.00;;;2.70;;
17763;SDS011;22245;52.832;13.816;2023-09-19T07:59:33;7.43;;;3.22;;
17763;SDS011;22245;52.832;13.816;2023-09-19T08:02:58;8.18;;;2.70;;
17763;SDS011;22245;52.832;13.816;2023-09-19T08:06:27;5.53;;;2.72;;
17763;SDS011;22245;52.832;13.816;2023-09-19T08:09:51;4.88;;;2.53;;
17763;SDS011;22245;52.832;13.816;2023-09-19T08:13:12;6.78;;;2.92;;
17763;SDS011;22245;52.832;13.816;2023-09-19T08:16:34;7.10;;;2.80;;
17763;SDS011;22245;52.832;13.816;2023-09-19T08:19:58;5.93;;;3.45;;
17763;SDS011;22245;52.832;13.816;2023-09-19T08:23:20;4.95;;;2.40;;
17763;SDS011;22245;52.832;13.816;2023-09-19T08:26:41;5.32;;;2.50;;
17763;SDS011;22245;52.832;13.816;2023-09-19T08:30:05;4.10;;;2.47;;
17763;SDS011;22245;52.832;13.816;2023-09-19T08:33:27;9.90;;;2.55;;
17763;SDS011;22245;52.832;13.816;2023-09-19T08:36:51;15.00;;;2.50;;
17763;SDS011;22245;52.832;13.816;2023-09-19T08:40:16;6.55;;;2.20;;
17763;SDS011;22245;52.832;13.816;2023-09-19T08:43:37;9.73;;;2.20;;
17763;SDS011;22245;52.832;13.816;2023-09-19T08:47:00;3.47;;;2.10;;
17763;SDS011;22245;52.832;13.816;2023-09-19T08:50:30;3.38;;;2.00;;
17763;SDS011;22245;52.832;13.816;2023-09-19T08:53:54;4.15;;;2.05;;
17763;SDS011;22245;52.832;13.816;2023-09-19T08:57:23;3.65;;;2.08;;
17763;SDS011;22245;52.832;13.816;2023-09-19T09:00:45;6.43;;;2.47;;
17763;SDS011;22245;52.832;13.816;2023-09-19T09:04:09;4.75;;;2.20;;
17763;SDS011;22245;52.832;13.816;2023-09-19T09:07:33;4.32;;;2.08;;
17763;SDS011;22245;52.832;13.816;2023-09-19T09:10:56;3.50;;;2.22;;
17763;SDS011;22245;52.832;13.816;2023-09-19T09:14:20;5.35;;;2.03;;
17763;SDS011;22245;52.832;13.816;2023-09-19T09:17:46;5.80;;;2.85;;
17763;SDS011;22245;52.832;13.816;2023-09-19T09:21:08;6.13;;;2.85;;
17763;SDS011;22245;52.832;13.816;2023-09-19T09:24:33;7.78;;;2.60;;
17763;SDS011;22245;52.832;13.816;2023-09-19T09:28:00;8.20;;;2.90;;
17763;SDS011;22245;52.832;13.816;2023-09-19T09:31:23;4.88;;;2.83;;
17763;SDS011;22245;52.832;13.816;2023-09-19T09:34:47;6.18;;;2.85;;
17763;SDS011;22245;52.832;13.816;2023-09-19T09:38:12;5.78;;;2.92;;
17763;SDS011;22245;52.832;13.816;2023-09-19T09:41:35;5.85;;;2.72;;
17763;SDS011;22245;52.832;13.816;2023-09-19T09:45:14;7.13;;;3.17;;
17763;SDS011;22245;52.832;13.816;2023-09-19T09:48:37;4.75;;;2.67;;
17763;SDS011;22245;52.832;13.816;2023-09-19T09:51:59;10.45;;;3.42;;
17763;SDS011;22245;52.832;13.816;2023-09-19T09:55:29;5.22;;;2.83;;
17763;SDS011;22245;52.832;13.816;2023-09-19T09:58:51;6.55;;;3.28;;
17763;SDS011;22245;52.832;13.816;2023-09-19T10:02:17;7.13;;;3.55;;
17763;SDS011;22245;52.832;13.816;2023-09-19T10:05:45;7.93;;;2.85;;
17763;SDS011;22245;52.832;13.816;2023-09-19T10:09:07;5.50;;;2.70;;
17763;SDS011;22245;52.832;13.816;2023-09-19T10:12:34;6.20;;;3.35;;
17763;SDS011;22245;52.832;13.816;2023-09-19T10:15:58;6.97;;;3.03;;
17763;SDS011;22245;52.832;13.816;2023-09-19T10:19:29;4.90;;;2.80;;
17763;SDS011;22245;52.832;13.816;2023-09-19T10:22:54;5.13;;;2.60;;
17763;SDS011;22245;52.832;13.816;2023-09-19T10:26:18;7.30;;;3.15;;
17763;SDS011;22245;52.832;13.816;2023-09-19T10:29:43;7.20;;;2.75;;
17763;SDS011;22245;52.832;13.816;2023-09-19T10:33:07;6.75;;;3.08;;
17763;SDS011;22245;52.832;13.816;2023-09-19T10:36:32;6.28;;;2.97;;
17763;SDS011;22245;52.832;13.816;2023-09-19T10:39:55;5.15;;;2.72;;
17763;SDS011;22245;52.832;13.816;2023-09-19T10:43:18;5.93;;;2.80;;
17763;SDS011;22245;52.832;13.816;2023-09-19T10:46:42;5.90;;;2.78;;
17763;SDS011;22245;52.832;13.816;2023-09-19T10:50:05;5.60;;;2.83;;
17763;SDS011;22245;52.832;13.816;2023-09-19T10:53:41;6.47;;;2.75;;
17763;SDS011;22245;52.832;13.816;2023-09-19T10:57:07;7.90;;;3.05;;
17763;SDS011;22245;52.832;13.816;2023-09-19T11:00:30;7.22;;;2.80;;
17763;SDS011;22245;52.832;13.816;2023-09-19T11:04:20;5.70;;;2.67;;
17763;SDS011;22245;52.832;13.816;2023-09-19T11:07:57;8.98;;;2.63;;
17763;SDS011;22245;52.832;13.816;2023-09-19T11:15:06;4.93;;;2.95;;
17763;SDS011;22245;52.832;13.816;2023-09-19T11:22:17;7.43;;;2.90;;
17763;SDS011;22245;52.832;13.816;2023-09-19T11:25:42;6.28;;;3.13;;
17763;SDS011;22245;52.832;13.816;2023-09-19T11:36:41;6.93;;;3.20;;
17763;SDS011;22245;52.832;13.816;2023-09-19T11:40:05;6.22;;;3.05;;
17763;SDS011;22245;52.832;13.816;2023-09-19T11:43:36;7.03;;;2.78;;
17763;SDS011;22245;52.832;13.816;2023-09-19T11:47:02;7.30;;;2.88;;
17763;SDS011;22245;52.832;13.816;2023-09-19T11:50:27;6.53;;;3.13;;
17763;SDS011;22245;52.832;13.816;2023-09-19T11:53:50;6.10;;;2.92;;
17763;SDS011;22245;52.832;13.816;2023-09-19T11:57:12;6.82;;;3.00;;
17763;SDS011;22245;52.832;13.816;2023-09-19T12:00:41;7.95;;;2.92;;
17763;SDS011;22245;52.832;13.816;2023-09-19T12:04:07;6.47;;;3.30;;
17763;SDS011;22245;52.832;13.816;2023-09-19T12:07:32;6.35;;;2.90;;
17763;SDS011;22245;52.832;13.816;2023-09-19T12:11:04;3.33;;;2.40;;
17763;SDS011;22245;52.832;13.816;2023-09-19T12:14:28;8.32;;;2.80;;
17763;SDS011;22245;52.832;13.816;2023-09-19T12:17:50;9.25;;;3.10;;
17763;SDS011;22245;52.832;13.816;2023-09-19T12:21:28;4.32;;;2.53;;
17763;SDS011;22245;52.832;13.816;2023-09-19T12:24:51;5.72;;;2.63;;
17763;SDS011;22245;52.832;13.816;2023-09-19T12:28:14;7.90;;;2.92;;
17763;SDS011;22245;52.832;13.816;2023-09-19T12:31:37;6.45;;;2.88;;
17763;SDS011;22245;52.832;13.816;2023-09-19T12:35:09;7.70;;;2.55;;
17763;SDS011;22245;52.832;13.816;2023-09-19T12:38:32;10.20;;;2.90;;
17763;SDS011;22245;52.832;13.816;2023-09-19T12:41:55;8.13;;;2.72;;
17763;SDS011;22245;52.832;13.816;2023-09-19T12:45:17;7.03;;;2.35;;
17763;SDS011;22245;52.832;13.816;2023-09-19T12:48:38;6.50;;;2.33;;
17763;SDS011;22245;52.832;13.816;2023-09-19T12:52:04;3.38;;;2.03;;
17763;SDS011;22245;52.832;13.816;2023-09-19T12:55:28;11.57;;;2.67;;
17763;SDS011;22245;52.832;13.816;2023-09-19T12:58:53;3.97;;;2.10;;
17763;SDS011;22245;52.832;13.816;2023-09-19T13:02:16;4.95;;;2.03;;
17763;SDS011;22245;52.832;13.816;2023-09-19T13:05:47;6.80;;;2.47;;
17763;SDS011;22245;52.832;13.816;2023-09-19T13:09:10;5.30;;;1.77;;
17763;SDS011;22245;52.832;13.816;2023-09-19T13:12:35;7.80;;;1.75;;
17763;SDS011;22245;52.832;13.816;2023-09-19T13:15:59;14.20;;;2.42;;
17763;SDS011;22245;52.832;13.816;2023-09-19T13:19:35;4.50;;;2.10;;
17763;SDS011;22245;52.832;13.816;2023-09-19T13:22:59;5.10;;;2.03;;
17763;SDS011;22245;52.832;13.816;2023-09-19T13:26:28;4.97;;;1.73;;
17763;SDS011;22245;52.832;13.816;2023-09-19T13:29:51;8.25;;;2.40;;
17763;SDS011;22245;52.832;13.816;2023-09-19T13:33:12;6.00;;;1.83;;
17763;SDS011;22245;52.832;13.816;2023-09-19T13:36:41;6.30;;;1.90;;
17763;SDS011;22245;52.832;13.816;2023-09-19T13:40:03;6.63;;;2.08;;
17763;SDS011;22245;52.832;13.816;2023-09-19T13:43:26;5.20;;;2.20;;
17763;SDS011;22245;52.832;13.816;2023-09-19T13:46:50;6.45;;;2.00;;
17763;SDS011;22245;52.832;13.816;2023-09-19T13:50:15;8.13;;;1.77;;
17763;SDS011;22245;52.832;13.816;2023-09-19T13:53:37;6.55;;;1.90;;
17763;SDS011;22245;52.832;13.816;2023-09-19T13:56:59;4.22;;;1.60;;
17763;SDS011;22245;52.832;13.816;2023-09-19T14:00:20;3.95;;;1.48;;
17763;SDS011;22245;52.832;13.816;2023-09-19T14:03:44;3.72;;;1.80;;
17763;SDS011;22245;52.832;13.816;2023-09-19T14:07:07;9.55;;;1.90;;
17763;SDS011;22245;52.832;13.816;2023-09-19T14:10:29;5.80;;;1.67;;
17763;SDS011;22245;52.832;13.816;2023-09-19T14:13:52;5.35;;;2.38;;
17763;SDS011;22245;52.832;13.816;2023-09-19T14:17:16;10.00;;;2.28;;
17763;SDS011;22245;52.832;13.816;2023-09-19T14:20:39;6.25;;;1.80;;
17763;SDS011;22245;52.832;13.816;2023-09-19T14:24:01;5.05;;;1.70;;
17763;SDS011;22245;52.832;13.816;2023-09-19T14:27:23;3.22;;;1.52;;
17763;SDS011;22245;52.832;13.816;2023-09-19T14:30:45;6.80;;;1.95;;
17763;SDS011;22245;52.832;13.816;2023-09-19T14:34:09;7.90;;;2.20;;
17763;SDS011;22245;52.832;13.816;2023-09-19T14:37:32;5.20;;;1.90;;
17763;SDS011;22245;52.832;13.816;2023-09-19T14:40:58;6.80;;;1.83;;
17763;SDS011;22245;52.832;13.816;2023-09-19T14:44:21;4.50;;;1.45;;
17763;SDS011;22245;52.832;13.816;2023-09-19T14:47:43;7.45;;;2.03;;
17763;SDS011;22245;52.832;13.816;2023-09-19T14:51:05;4.45;;;1.77;;
17763;SDS011;22245;52.832;13.816;2023-09-19T14:54:30;5.65;;;1.60;;
17763;SDS011;22245;52.832;13.816;2023-09-19T14:57:52;7.50;;;1.95;;
17763;SDS011;22245;52.832;13.816;2023-09-19T15:01:16;7.53;;;2.00;;
17763;SDS011;22245;52.832;13.816;2023-09-19T15:04:38;3.50;;;1.67;;
17763;SDS011;22245;52.832;13.816;2023-09-19T15:08:01;8.13;;;2.10;;
17763;SDS011;22245;52.832;13.816;2023-09-19T15:11:25;4.88;;;1.83;;
17763;SDS011;22245;52.832;13.816;2023-09-19T15:14:47;5.72;;;1.75;;
17763;SDS011;22245;52.832;13.816;2023-09-19T15:18:08;4.68;;;1.67;;
17763;SDS011;22245;52.832;13.816;2023-09-19T15:21:32;5.93;;;1.58;;
17763;SDS011;22245;52.832;13.816;2023-09-19T15:24:54;6.13;;;1.98;;
17763;SDS011;22245;52.832;13.816;2023-09-19T15:28:17;4.45;;;1.90;;
17763;SDS011;22245;52.832;13.816;2023-09-19T15:31:42;5.32;;;2.00;;
17763;SDS011;22245;52.832;13.816;2023-09-19T15:35:04;3.95;;;1.77;;
17763;SDS011;22245;52.832;13.816;2023-09-19T15:38:27;6.70;;;1.77;;
17763;SDS011;22245;52.832;13.816;2023-09-19T15:41:49;7.07;;;1.92;;
17763;SDS011;22245;52.832;13.816;2023-09-19T15:45:12;4.78;;;1.73;;
17763;SDS011;22245;52.832;13.816;2023-09-19T15:48:35;5.78;;;1.88;;
17763;SDS011;22245;52.832;13.816;2023-09-19T15:51:57;3.22;;;1.70;;
17763;SDS011;22245;52.832;13.816;2023-09-19T15:55:18;5.35;;;2.03;;
17763;SDS011;22245;52.832;13.816;2023-09-19T15:58:39;4.43;;;1.98;;
17763;SDS011;22245;52.832;13.816;2023-09-19T16:02:03;3.35;;;1.77;;
17763;SDS011;22245;52.832;13.816;2023-09-19T16:05:25;2.95;;;1.70;;
17763;SDS011;22245;52.832;13.816;2023-09-19T16:08:47;5.43;;;2.03;;
17763;SDS011;22245;52.832;13.816;2023-09-19T16:12:09;5.10;;;1.98;;
17763;SDS011;22245;52.832;13.816;2023-09-19T16:15:31;3.72;;;1.90;;
17763;SDS011;22245;52.832;13.816;2023-09-19T16:18:55;4.13;;;1.85;;
17763;SDS011;22245;52.832;13.816;2023-09-19T16:22:22;4.95;;;1.98;;
17763;SDS011;22245;52.832;13.816;2023-09-19T16:25:44;3.78;;;1.90;;
17763;SDS011;22245;52.832;13.816;2023-09-19T16:29:06;3.83;;;1.98;;
17763;SDS011;22245;52.832;13.816;2023-09-19T16:32:30;5.18;;;2.10;;
17763;SDS011;22245;52.832;13.816;2023-09-19T16:35:54;7.78;;;2.03;;
17763;SDS011;22245;52.832;13.816;2023-09-19T16:39:17;6.10;;;2.13;;
17763;SDS011;22245;52.832;13.816;2023-09-19T16:42:38;3.70;;;2.08;;
17763;SDS011;22245;52.832;13.816;2023-09-19T16:46:02;9.25;;;2.45;;
17763;SDS011;22245;52.832;13.816;2023-09-19T16:49:26;6.93;;;2.90;;
17763;SDS011;22245;52.832;13.816;2023-09-19T16:52:50;7.63;;;2.70;;
17763;SDS011;22245;52.832;13.816;2023-09-19T16:56:11;6.35;;;2.60;;
17763;SDS011;22245;52.832;13.816;2023-09-19T16:59:36;3.95;;;2.35;;
17763;SDS011;22245;52.832;13.816;2023-09-19T17:02:57;8.30;;;2.60;;
17763;SDS011;22245;52.832;13.816;2023-09-19T17:06:20;6.80;;;2.72;;
17763;SDS011;22245;52.832;13.816;2023-09-19T17:09:46;5.28;;;2.60;;
17763;SDS011;22245;52.832;13.816;2023-09-19T17:13:07;4.68;;;2.17;;
17763;SDS011;22245;52.832;13.816;2023-09-19T17:16:28;5.00;;;2.60;;
17763;SDS011;22245;52.832;13.816;2023-09-19T17:19:50;4.07;;;2.20;;
17763;SDS011;22245;52.832;13.816;2023-09-19T17:23:12;3.78;;;2.00;;
17763;SDS011;22245;52.832;13.816;2023-09-19T17:26:35;4.97;;;2.20;;
17763;SDS011;22245;52.832;13.816;2023-09-19T17:29:56;6.45;;;2.35;;
17763;SDS011;22245;52.832;13.816;2023-09-19T17:33:18;7.63;;;3.97;;
17763;SDS011;22245;52.832;13.816;2023-09-19T17:36:39;7.30;;;3.10;;
17763;SDS011;22245;52.832;13.816;2023-09-19T17:40:03;8.18;;;5.75;;
17763;SDS011;22245;52.832;13.816;2023-09-19T17:43:26;5.32;;;2.80;;
17763;SDS011;22245;52.832;13.816;2023-09-19T17:46:48;4.20;;;2.15;;
17763;SDS011;22245;52.832;13.816;2023-09-19T17:50:09;5.22;;;2.33;;
17763;SDS011;22245;52.832;13.816;2023-09-19T17:57:22;5.50;;;2.10;;
17763;SDS011;22245;52.832;13.816;2023-09-19T18:00:46;5.90;;;2.42;;
17763;SDS011;22245;52.832;13.816;2023-09-19T18:04:07;4.68;;;2.22;;
17763;SDS011;22245;52.832;13.816;2023-09-19T18:07:29;6.57;;;2.63;;
17763;SDS011;22245;52.832;13.816;2023-09-19T18:10:50;5.07;;;2.40;;
17763;SDS011;22245;52.832;13.816;2023-09-19T18:14:13;12.25;;;2.38;;
17763;SDS011;22245;52.832;13.816;2023-09-19T18:17:37;4.72;;;2.47;;
17763;SDS011;22245;52.832;13.816;2023-09-19T18:21:00;5.38;;;2.53;;
17763;SDS011;22245;52.832;13.816;2023-09-19T18:24:22;6.57;;;2.60;;
17763;SDS011;22245;52.832;13.816;2023-09-19T18:27:43;4.80;;;2.22;;
17763;SDS011;22245;52.832;13.816;2023-09-19T18:31:05;6.78;;;2.58;;
17763;SDS011;22245;52.832;13.816;2023-09-19T18:34:28;6.40;;;2.80;;
17763;SDS011;22245;52.832;13.816;2023-09-19T18:37:50;4.28;;;2.35;;
17763;SDS011;22245;52.832;13.816;2023-09-19T18:41:15;4.47;;;2.35;;
17763;SDS011;22245;52.832;13.816;2023-09-19T18:44:36;8.85;;;2.70;;
17763;SDS011;22245;52.832;13.816;2023-09-19T18:47:58;5.00;;;2.38;;
17763;SDS011;22245;52.832;13.816;2023-09-19T18:51:21;8.18;;;3.05;;
17763;SDS011;22245;52.832;13.816;2023-09-19T18:54:44;5.43;;;2.28;;
17763;SDS011;22245;52.832;13.816;2023-09-19T18:58:05;6.22;;;2.63;;
17763;SDS011;22245;52.832;13.816;2023-09-19T19:01:27;7.07;;;2.88;;
17763;SDS011;22245;52.832;13.816;2023-09-19T19:04:48;10.30;;;4.60;;
17763;SDS011;22245;52.832;13.816;2023-09-19T19:08:11;14.18;;;3.03;;
17763;SDS011;22245;52.832;13.816;2023-09-19T19:11:33;8.45;;;2.78;;
17763;SDS011;22245;52.832;13.816;2023-09-19T19:14:56;6.38;;;2.70;;
17763;SDS011;22245;52.832;13.816;2023-09-19T19:18:18;6.25;;;3.03;;
17763;SDS011;22245;52.832;13.816;2023-09-19T19:21:41;6.80;;;2.75;;
17763;SDS011;22245;52.832;13.816;2023-09-19T19:25:05;5.88;;;2.75;;
17763;SDS011;22245;52.832;13.816;2023-09-19T19:28:29;8.38;;;3.22;;
17763;SDS011;22245;52.832;13.816;2023-09-19T19:31:52;5.53;;;2.50;;
17763;SDS011;22245;52.832;13.816;2023-09-19T19:35:14;5.68;;;2.58;;
17763;SDS011;22245;52.832;13.816;2023-09-19T19:38:38;5.88;;;3.00;;
17763;SDS011;22245;52.832;13.816;2023-09-19T19:42:03;5.95;;;2.88;;
17763;SDS011;22245;52.832;13.816;2023-09-19T19:45:25;4.70;;;2.20;;
17763;SDS011;22245;52.832;13.816;2023-09-19T19:48:49;6.47;;;2.70;;
17763;SDS011;22245;52.832;13.816;2023-09-19T19:52:12;6.10;;;2.70;;
17763;SDS011;22245;52.832;13.816;2023-09-19T19:55:34;7.65;;;2.60;;
17763;SDS011;22245;52.832;13.816;2023-09-19T19:58:57;8.85;;;3.05;;
17763;SDS011;22245;52.832;13.816;2023-09-19T20:02:19;4.45;;;2.40;;
17763;SDS011;22245;52.832;13.816;2023-09-19T20:05:42;8.07;;;3.20;;
17763;SDS011;22245;52.832;13.816;2023-09-19T20:09:04;5.60;;;2.67;;
17763;SDS011;22245;52.832;13.816;2023-09-19T20:12:26;5.45;;;2.28;;
17763;SDS011;22245;52.832;13.816;2023-09-19T20:15:54;7.22;;;2.40;;
17763;SDS011;22245;52.832;13.816;2023-09-19T20:19:18;6.35;;;2.42;;
17763;SDS011;22245;52.832;13.816;2023-09-19T20:22:40;4.97;;;2.55;;
17763;SDS011;22245;52.832;13.816;2023-09-19T20:26:01;6.95;;;2.72;;
17763;SDS011;22245;52.832;13.816;2023-09-19T20:29:24;9.38;;;2.50;;